x

Port Orford - 15 Nm West Of Port Orford, Or (46015) Wave Buoy

3:50pm - Tue 22nd Jul 2014 All times are PDT. -7 hours from GMT.

  • Sig Wave height 3.3ft
  • Swell Direction
  • Peak Period 11s
  • Average Period 8s
  • Wind
    7mph
  • Sea Temp 54°f
  • Air Temp 54°f
  • Sea Pressure 1018.9mb
  • Port Orford - 15 Nm West Of Port Orford, Or
  • Port Orford - 15 Nm West Of Port Orford, Or

More Historic Weather Station data

Upgrade to MSW Pro to gain access to the past 30 days of data for over 8000 Wavebouys and Weather Stations around the globe.

Join Pro

Comparision Forecast

View Surf forecast
   
Tue 07/22 3:50pm 3.5ft 11s 8s 7
mph
1018.9mb 54f 54f
2:50pm 3.5ft 11s 8s 7
mph
1018.9mb 54f 54f
1:50pm 3.5ft 11s 8s 7
mph
1018.7mb 53f 53f
12:50pm 3.5ft 11s 8s 4
mph
1018.7mb 53f 53f
11:50am 3.5ft 9s 7s 4
mph
1018.8mb 52f 53f
10:50am 3.5ft 10s 8s 7
mph
1018.7mb 51f 53f
9:50am 3.5ft 11s 7s 4 7 mph 1018.5mb 52f 53f
8:50am 3.5ft 10s 7s 2 4 mph 1018.5mb 52f 53f
7:50am 3.5ft 9s 7s  -  2 mph 1017.9mb 52f 52f
6:50am 4ft 10s 7s 4
mph
1017.7mb 52f 52f
5:50am 3.5ft 11s 7s 4 7 mph 1017.6mb 52f 52f
4:50am 4ft 10s 7s 7
mph
1017.6mb 52f 52f
3:50am 4.5ft 9s 7s 4
mph
1017.7mb 52f 52f
2:50am 4.5ft 10s 8s 7 9 mph 1017.9mb 52f 53f
1:50am 4ft 10s 8s 9
mph
1017.9mb 52f 53f
12:50am 4.5ft 9s 7s 7 9 mph 1017.8mb 52f 53f
Mon 07/21 11:50pm 4.5ft 10s 7s 4 7 mph 1018mb 52f 53f
10:50pm 4.5ft 9s 7s 4 7 mph 1018.2mb 53f 53f
9:50pm 4ft 9s 7s 7
mph
1018.3mb 52f 53f
8:50pm 4.5ft 9s 7s 7
mph
1018mb 52f 53f
6:50pm 4.5ft 9s 7s 4
mph
1017.6mb 52f 53f
5:50pm 4.5ft 10s 7s 4 7 mph 1017.8mb 52f 53f
4:50pm  -   -   -  7
mph
1017.8mb 51f 52f
2:50pm 5ft 10s 7s 4 7 mph 1017.6mb 55f 54f
1:50pm 5ft 10s 7s 2 4 mph 1017.5mb 54f 54f
12:50pm 5.5ft 10s 7s 2 4 mph 1017.4mb 53f 53f
11:50am 5ft 10s 7s 2 4 mph 1017.2mb 53f 53f
10:50am 6ft 10s 8s 7
mph
1016.8mb 52f 53f
9:50am 6ft 10s 8s 7
mph
1016.6mb 52f 53f
8:50am 6ft 10s 8s 11
mph
1016.5mb 52f 54f
7:50am 5ft 11s 7s 9 11 mph 1016.4mb 52f 54f
6:50am 5ft 9s 7s 7 9 mph 1016.5mb 52f 53f
5:50am 6ft 11s 8s 9
mph
1016mb 52f 53f
4:50am 6ft 9s 7s 7 9 mph 1016mb 52f 53f
3:50am 6ft 10s 8s 9
mph
1016.1mb 52f 53f
2:50am 6ft 11s 7s 11
mph
1015.9mb 52f 53f
1:50am 6.5ft 10s 7s 11 13 mph 1016.2mb 52f 54f
12:50am 6.5ft 10s 8s 9 11 mph 1016.5mb 52f 53f
Sun 07/20 11:50pm 7ft 10s 8s 11 13 mph 1016.5mb 52f 53f
10:50pm 6.5ft 11s 7s 11 13 mph 1016.6mb 52f 54f
9:50pm 6.5ft 10s 8s 11 13 mph 1016.2mb 52f 54f
8:50pm 6.5ft 10s 8s 13 16 mph 1015.7mb 52f 54f
7:50pm 7ft 10s 7s 13 16 mph 1015.7mb 52f 55f
6:50pm 7ft 10s 7s 13 18 mph 1015.5mb 52f 55f
5:50pm 7.5ft 10s 7s 16 18 mph 1015.2mb 52f 55f
3:50pm 6.5ft 10s 7s 16 18 mph 1015.5mb 52f 54f
2:50pm 7ft 9s 7s 18 20 mph 1015.6mb 52f 55f
1:50pm 6ft 9s 7s 18 20 mph 1015.8mb 52f 55f
12:50pm 5.5ft 10s 6s 16 18 mph 1016mb 52f 54f
11:50am 5ft 8s 6s 16 20 mph 1016mb 52f 54f
10:50am 5ft 9s 7s 16 18 mph 1016mb 52f 53f
9:50am 5ft 10s 6s 16
mph
1016.1mb 51f 53f
8:50am 5ft 10s 6s 13 16 mph 1016.1mb 51f 53f
7:50am 5ft 10s 6s 13 18 mph 1015.6mb 50f 53f
6:50am 5ft 8s 6s 16 18 mph 1015.6mb 50f 53f
5:50am 5ft 8s 6s 16 18 mph 1015.5mb 50f 53f
4:50am 4.5ft 8s 6s 11 13 mph 1015.9mb 50f 52f
3:50am 4.5ft 8s 6s 13 16 mph 1016.1mb 50f 52f
2:50am 4.5ft 9s 6s 13 16 mph 1016.2mb 50f 53f
12:50am 4.5ft 8s 6s 18
mph
1016.1mb 49f 52f
Sat 07/19 11:50pm 4ft 7s 5s 13 16 mph 1016.7mb 49f 51f
10:50pm 4ft 7s 5s 16 18 mph 1016.7mb 49f 51f
9:50pm 4ft 7s 5s 16 18 mph 1016.8mb 50f 51f
8:50pm 4.5ft 5s 5s 16 18 mph 1016.1mb 49f 51f
6:50pm 4.5ft 7s 5s 13 16 mph 1015.9mb 50f 52f
5:50pm 5ft 6s 5s 13 16 mph 1016mb 50f 53f
4:50pm 5ft 6s 5s 18 20 mph 1016.4mb 50f 54f
3:50pm 6ft 6s 5s 20 25 mph 1016.6mb 50f 55f
2:50pm 6.5ft 6s 5s 25 29 mph 1016.6mb 49f 55f
1:50pm 6ft 6s 5s 25 27 mph 1017mb 50f 54f
12:50pm 6ft 6s 5s 22 29 mph 1017.5mb 49f 53f
11:50am 5.5ft 5s 5s 22 27 mph 1017.8mb 49f 53f
10:50am 5.5ft 8s 5s 20 22 mph 1018.1mb 49f 52f
9:50am 6ft 6s 5s 20 25 mph 1018mb 49f 51f
8:50am 7ft 8s 5s 22 27 mph 1017.8mb 49f 52f
7:50am 6.5ft 7s 5s 18 22 mph 1017.8mb 49f 51f
6:50am 7ft 7s 5s 22 25 mph 1017.2mb 49f 51f
5:50am 6ft 7s 5s 25 29 mph 1017mb 49f 52f
4:50am 6.5ft 8s 5s 25 31 mph 1017mb 50f 52f
3:50am 6.5ft 7s 6s 27 31 mph 1016.7mb 49f 53f
2:50am 7ft 8s 6s 22 25 mph 1016.9mb 50f 53f
1:50am 7ft 8s 6s 20 25 mph 1017.4mb 50f 53f
12:50am 7ft 7s 6s 22 27 mph 1017.6mb 49f 53f